Time;durP1;ratioP1;P1;durP2;ratioP2;P2;SDS_P1;SDS_P2;PMS_P1;PMS_P2;Temp;Humidity;BMP_temperature;BMP_pressure;BME280_temperature;BME280_humidity;BME280_pressure;Samples;Min_cycle;Max_cycle;Signal;HPM_P1;HPM_P2
2022/05/10 00:00:55;;;;;;;12.93;11.90;;;13.90;99.90;;;;;;5061398;28;20221;-88
2022/05/10 00:03:31;;;;;;;13.20;12.00;;;13.30;99.90;;;;;;5043887;28;20502;-88
2022/05/10 00:05:56;;;;;;;12.27;11.10;;;13.10;99.90;;;;;;5041956;28;20446;-87
2022/05/10 00:08:22;;;;;;;13.30;12.20;;;13.40;99.90;;;;;;5056527;28;20437;-88
2022/05/10 00:10:56;;;;;;;13.33;12.23;;;13.40;99.90;;;;;;5029906;28;20352;-87
2022/05/10 00:13:27;;;;;;;13.10;11.60;;;13.80;99.90;;;;;;5052047;28;20531;-88
2022/05/10 00:16:01;;;;;;;13.27;12.10;;;13.20;99.90;;;;;;5048466;28;21026;-89
2022/05/10 00:18:33;;;;;;;12.63;11.43;;;13.20;99.90;;;;;;5050511;28;20483;-89
2022/05/10 00:21:01;;;;;;;14.30;13.00;;;13.30;99.90;;;;;;5038644;28;20889;-88
2022/05/10 00:23:32;;;;;;;13.50;12.40;;;13.30;99.90;;;;;;5038983;28;20507;-88
2022/05/10 00:26:02;;;;;;;13.00;11.93;;;13.20;99.90;;;;;;5041417;28;20585;-88
2022/05/10 00:28:33;;;;;;;13.00;11.60;;;13.40;99.90;;;;;;5041757;28;20441;-89
2022/05/10 00:31:18;;;;;;;12.43;11.50;;;14.20;99.90;;;;;;5061641;28;20480;-89
2022/05/10 00:34:19;;;;;;;12.30;11.20;;;13.30;99.90;;;;;;5057062;28;20444;-89
2022/05/10 00:36:45;;;;;;;12.10;11.10;;;13.20;99.90;;;;;;5045834;28;20839;-88
2022/05/10 00:39:12;;;;;;;12.60;11.50;;;13.30;99.90;;;;;;5037000;28;20440;-88
2022/05/10 00:41:58;;;;;;;13.50;12.30;;;13.50;99.90;;;;;;5043377;28;20964;-88
2022/05/10 00:44:32;;;;;;;12.07;11.07;;;13.00;99.90;;;;;;5052139;28;20957;-88
2022/05/10 00:47:43;;;;;;;12.60;11.60;;;13.00;99.90;;;;;;5034658;28;20437;-88
2022/05/10 00:50:23;;;;;;;12.93;11.80;;;13.00;99.90;;;;;;5040430;28;20511;-88
2022/05/10 00:53:01;;;;;;;13.20;12.00;;;13.00;99.90;;;;;;5036311;28;20446;-88
2022/05/10 00:55:38;;;;;;;11.40;10.40;;;13.00;99.90;;;;;;5027807;28;20518;-89
2022/05/10 00:58:14;;;;;;;13.10;11.60;;;12.90;99.90;;;;;;5049949;28;20490;-88
2022/05/10 01:00:43;;;;;;;11.97;10.90;;;13.00;99.90;;;;;;5030562;28;21881;-88
2022/05/10 01:03:11;;;;;;;11.87;10.90;;;12.90;99.90;;;;;;5039958;28;20528;-88
2022/05/10 01:05:49;;;;;;;13.20;12.00;;;12.80;99.90;;;;;;5060133;28;20919;-88
2022/05/10 01:08:34;;;;;;;13.70;12.40;;;12.70;99.90;;;;;;5056266;28;20946;-88
2022/05/10 01:11:02;;;;;;;12.80;11.70;;;12.70;99.90;;;;;;5041075;28;20468;-88
2022/05/10 01:13:40;;;;;;;12.13;10.90;;;12.70;99.90;;;;;;5047785;28;21893;-88
2022/05/10 01:16:10;;;;;;;12.00;11.00;;;12.70;99.90;;;;;;5047512;28;20444;-89
2022/05/10 01:18:38;;;;;;;12.30;11.20;;;12.60;99.90;;;;;;5031323;28;20436;-89
2022/05/10 01:21:36;;;;;;;13.30;12.20;;;13.00;99.90;;;;;;5059908;28;21033;-89
2022/05/10 01:24:24;;;;;;;12.27;11.27;;;12.70;99.90;;;;;;5040561;28;20440;-88
2022/05/10 01:27:08;;;;;;;13.00;11.90;;;12.60;99.90;;;;;;5046888;28;21030;-89
2022/05/10 01:29:40;;;;;;;12.30;11.40;;;12.60;99.90;;;;;;5042331;28;21811;-88
2022/05/10 01:35:08;;;;;;;13.20;12.20;;;12.60;99.90;;;;;;5067391;28;20991;-88
2022/05/10 01:37:47;;;;;;;13.07;12.00;;;12.40;99.90;;;;;;5073590;28;20878;-89
2022/05/10 01:40:37;;;;;;;12.57;11.57;;;12.40;99.90;;;;;;5046660;28;20436;-89
2022/05/10 01:43:38;;;;;;;13.50;12.30;;;12.80;99.90;;;;;;5027360;28;20449;-88
2022/05/10 01:46:12;;;;;;;13.00;11.80;;;12.50;99.90;;;;;;4998251;28;20558;-88
2022/05/10 01:48:40;;;;;;;13.13;12.03;;;13.00;99.90;;;;;;5032730;28;20497;-89
2022/05/10 01:51:33;;;;;;;13.73;12.63;;;12.40;99.90;;;;;;5039479;28;20833;-88
2022/05/10 01:53:59;;;;;;;12.20;11.20;;;12.40;99.90;;;;;;5021251;28;20441;-88
2022/05/10 01:56:27;;;;;;;11.17;10.27;;;12.10;99.90;;;;;;5041415;28;20441;-88
2022/05/10 01:58:54;;;;;;;12.90;11.80;;;12.30;99.90;;;;;;5047602;28;21162;-88
2022/05/10 02:01:27;;;;;;;13.50;12.30;;;12.10;99.90;;;;;;5036650;28;20903;-88
2022/05/10 02:04:07;;;;;;;14.93;13.53;;;12.40;99.90;;;;;;5041345;28;20452;-88
2022/05/10 02:06:44;;;;;;;12.90;11.80;;;12.50;99.90;;;;;;5038867;28;20452;-88
2022/05/10 02:09:21;;;;;;;13.87;12.77;;;12.40;99.90;;;;;;5049745;28;20488;-88
2022/05/10 02:12:02;;;;;;;13.10;12.00;;;12.40;99.90;;;;;;5046866;28;20482;-88
2022/05/10 02:14:32;;;;;;;15.50;14.07;;;12.50;99.90;;;;;;5042247;28;20977;-89
2022/05/10 02:17:14;;;;;;;15.00;13.70;;;12.60;99.90;;;;;;5062417;28;20584;-90
2022/05/10 02:19:47;;;;;;;14.67;13.47;;;12.60;99.90;;;;;;5051168;28;21626;-89
2022/05/10 02:22:36;;;;;;;15.37;13.80;;;12.40;99.90;;;;;;5060995;28;20432;-90
2022/05/10 02:25:24;;;;;;;16.07;14.67;;;12.70;99.90;;;;;;5051483;28;20523;-89
2022/05/10 02:28:45;;;;;;;16.23;14.67;;;12.70;99.90;;;;;;5041700;28;20432;-89
2022/05/10 02:31:22;;;;;;;15.20;13.90;;;12.80;99.90;;;;;;5032244;28;20476;-89
2022/05/10 02:34:09;;;;;;;15.73;14.33;;;12.70;99.90;;;;;;5038442;28;21190;-89
2022/05/10 02:36:54;;;;;;;15.50;14.07;;;12.60;99.90;;;;;;5054371;28;21020;-89
2022/05/10 02:39:40;;;;;;;15.80;14.27;;;12.60;99.90;;;;;;5053471;28;20518;-89
2022/05/10 02:42:18;;;;;;;16.13;14.83;;;12.50;99.90;;;;;;5030711;28;20489;-88
2022/05/10 02:44:50;;;;;;;15.03;13.67;;;12.30;99.90;;;;;;5041907;28;20440;-89
2022/05/10 02:47:30;;;;;;;15.33;14.03;;;12.50;99.90;;;;;;5043196;28;21023;-89
2022/05/10 02:50:28;;;;;;;15.53;14.13;;;12.10;99.90;;;;;;5049031;28;20575;-89
2022/05/10 02:52:55;;;;;;;16.30;14.87;;;12.30;99.90;;;;;;5048372;28;20837;-88
2022/05/10 02:55:34;;;;;;;15.50;14.10;;;12.30;99.90;;;;;;5075767;28;20428;-90
2022/05/10 02:58:21;;;;;;;17.10;15.50;;;12.50;99.90;;;;;;5042741;28;20448;-89
2022/05/10 03:00:49;;;;;;;16.27;14.57;;;12.20;99.90;;;;;;5032473;28;20520;-87
2022/05/10 03:03:17;;;;;;;15.70;14.30;;;12.40;99.90;;;;;;5044244;28;20489;-86
2022/05/10 03:05:43;;;;;;;15.70;14.20;;;12.50;99.90;;;;;;5045022;28;21328;-86
2022/05/10 03:08:09;;;;;;;15.77;14.30;;;12.00;99.90;;;;;;5048241;28;20468;-86
2022/05/10 03:10:34;;;;;;;15.37;14.10;;;11.90;99.90;;;;;;5038106;28;20245;-87
2022/05/10 03:13:01;;;;;;;14.33;13.13;;;12.00;99.90;;;;;;5050818;28;20260;-87
2022/05/10 03:15:27;;;;;;;15.10;13.70;;;11.90;99.90;;;;;;5058370;28;20576;-86
2022/05/10 03:17:52;;;;;;;14.77;13.50;;;11.90;99.90;;;;;;5055332;28;21742;-86
2022/05/10 03:20:18;;;;;;;15.13;13.70;;;11.50;99.90;;;;;;5061925;28;20182;-86
2022/05/10 03:22:43;;;;;;;15.43;14.13;;;11.70;99.90;;;;;;5053182;28;20281;-86
2022/05/10 03:25:09;;;;;;;15.63;14.13;;;11.70;99.90;;;;;;5053492;28;20179;-86
2022/05/10 03:27:37;;;;;;;15.77;14.30;;;13.00;99.90;;;;;;5051386;28;20178;-87
2022/05/10 03:30:04;;;;;;;16.07;14.63;;;12.70;99.90;;;;;;5040531;28;20225;-88
2022/05/10 03:32:32;;;;;;;16.33;14.13;;;11.70;99.90;;;;;;5031993;28;20455;-86
2022/05/10 03:34:58;;;;;;;14.70;13.40;;;11.60;99.90;;;;;;5039355;28;20444;-89
2022/05/10 03:37:26;;;;;;;13.07;11.97;;;11.60;99.90;;;;;;5041401;28;20433;-86
2022/05/10 03:39:52;;;;;;;14.10;12.90;;;11.40;99.90;;;;;;5047465;28;21100;-88
2022/05/10 03:42:18;;;;;;;16.17;14.67;;;11.50;99.90;;;;;;5047160;28;20838;-87
2022/05/10 03:44:49;;;;;;;16.90;14.90;;;11.60;99.90;;;;;;5036285;28;20190;-86
2022/05/10 03:47:14;;;;;;;14.07;12.83;;;11.70;99.90;;;;;;5039489;28;20554;-85
2022/05/10 03:49:40;;;;;;;15.53;14.13;;;11.70;99.90;;;;;;5032148;28;20428;-87
2022/05/10 03:52:06;;;;;;;15.73;14.33;;;11.80;99.90;;;;;;5041136;28;20221;-88
2022/05/10 03:54:31;;;;;;;16.10;14.60;;;11.80;99.90;;;;;;5040272;28;20216;-86
2022/05/10 03:56:59;;;;;;;15.13;13.83;;;11.80;99.90;;;;;;5054607;28;20718;-86
2022/05/10 03:59:26;;;;;;;16.07;14.60;;;11.90;99.90;;;;;;5035729;28;20187;-86
2022/05/10 04:01:52;;;;;;;17.10;15.50;;;12.00;99.90;;;;;;5038866;28;20445;-86
2022/05/10 04:04:18;;;;;;;16.10;14.70;;;12.00;99.90;;;;;;5040181;28;20452;-86
2022/05/10 04:06:44;;;;;;;17.17;15.47;;;13.20;99.90;;;;;;5038117;28;20988;-90
2022/05/10 04:09:09;;;;;;;14.87;13.57;;;12.00;99.90;;;;;;5054240;28;20517;-86
2022/05/10 04:11:37;;;;;;;16.07;14.57;;;11.80;99.90;;;;;;5047954;28;20214;-86
2022/05/10 04:14:03;;;;;;;16.43;15.03;;;12.10;99.90;;;;;;5046246;28;21417;-86
2022/05/10 04:16:29;;;;;;;16.57;15.07;;;11.90;99.90;;;;;;5040162;28;20452;-86
2022/05/10 04:18:54;;;;;;;16.47;14.97;;;11.60;99.90;;;;;;5030307;28;20429;-86
2022/05/10 04:21:52;;;;;;;15.80;14.30;;;11.80;99.90;;;;;;5031501;28;20198;-88
2022/05/10 04:24:27;;;;;;;16.27;14.73;;;11.40;99.90;;;;;;5045689;28;20331;-95
2022/05/10 04:26:53;;;;;;;16.80;15.20;;;11.50;99.90;;;;;;5059663;28;20445;-96
2022/05/10 04:29:19;;;;;;;16.00;14.57;;;11.40;99.90;;;;;;5048258;28;20627;-96
2022/05/10 04:31:44;;;;;;;16.40;14.70;;;11.60;99.90;;;;;;5051826;28;20222;-94
2022/05/10 04:34:22;;;;;;;16.60;15.10;;;12.80;99.90;;;;;;5060098;28;20205;-91
2022/05/10 04:36:58;;;;;;;;;;;;;;;;;;;;;
2022/05/10 04:41:24;;;;;;;16.33;14.73;;;12.00;99.90;;;;;;5058313;28;20441;-91
2022/05/10 04:42:15;;;;;;;15.83;14.30;;;12.00;99.90;;;;;;5064654;28;20441;-92
2022/05/10 04:44:58;;;;;;;15.90;14.40;;;12.70;99.90;;;;;;5063197;28;20918;-91
2022/05/10 04:47:26;;;;;;;15.33;13.93;;;12.50;99.90;;;;;;5042187;28;20807;-92
2022/05/10 04:49:52;;;;;;;15.20;13.80;;;12.30;99.90;;;;;;5045364;28;20440;-92
2022/05/10 04:52:18;;;;;;;16.47;15.00;;;12.00;99.90;;;;;;5059982;28;21930;-91
2022/05/10 04:54:43;;;;;;;18.33;15.93;;;12.40;99.90;;;;;;5041141;28;20440;-90
2022/05/10 04:57:09;;;;;;;15.70;14.30;;;12.80;99.90;;;;;;5060487;28;20190;-90
2022/05/10 04:59:35;;;;;;;16.57;15.07;;;12.50;99.90;;;;;;5055833;28;20194;-92
2022/05/10 05:02:03;;;;;;;16.00;14.60;;;12.40;99.90;;;;;;5061422;28;20177;-91
2022/05/10 05:04:34;;;;;;;16.53;15.03;;;12.60;99.90;;;;;;5041834;28;20567;-91
2022/05/10 05:07:02;;;;;;;15.30;14.00;;;12.70;99.90;;;;;;5044447;28;20439;-92
2022/05/10 05:09:43;;;;;;;17.20;15.70;;;12.80;99.90;;;;;;5038454;28;20452;-92
2022/05/10 05:12:10;;;;;;;16.37;14.87;;;12.80;99.90;;;;;;5042717;28;20576;-90
2022/05/10 05:14:37;;;;;;;16.60;15.20;;;12.80;99.90;;;;;;5037087;28;20485;-89
2022/05/10 05:17:03;;;;;;;17.37;15.77;;;13.20;99.90;;;;;;5052951;28;20452;-89
2022/05/10 05:19:29;;;;;;;15.87;14.50;;;12.50;99.90;;;;;;5040092;28;20444;-88
2022/05/10 05:21:54;;;;;;;16.50;14.93;;;13.10;99.90;;;;;;5054545;28;20184;-88
2022/05/10 05:24:22;;;;;;;15.87;14.47;;;12.80;99.90;;;;;;5049820;28;20204;-88
2022/05/10 05:26:48;;;;;;;16.07;14.60;;;12.70;99.90;;;;;;5054983;28;20225;-88
2022/05/10 05:29:14;;;;;;;17.13;15.63;;;12.80;99.90;;;;;;5065857;28;21227;-88
2022/05/10 05:31:42;;;;;;;16.87;15.47;;;12.90;99.90;;;;;;5079422;28;20210;-89
2022/05/10 05:34:08;;;;;;;16.73;15.30;;;13.20;99.90;;;;;;5073196;28;20506;-88
2022/05/10 05:36:33;;;;;;;15.47;14.07;;;12.90;99.90;;;;;;5088058;28;20470;-88
2022/05/10 05:38:59;;;;;;;16.57;15.03;;;13.60;99.90;;;;;;5071323;28;20223;-88
2022/05/10 05:41:24;;;;;;;16.83;15.37;;;13.90;99.90;;;;;;5071858;28;20190;-88
2022/05/10 05:43:50;;;;;;;17.10;15.60;;;13.40;99.90;;;;;;5070796;28;20187;-88
2022/05/10 05:46:18;;;;;;;16.00;14.40;;;13.40;99.90;;;;;;5077082;28;20178;-88
2022/05/10 05:48:44;;;;;;;17.83;16.00;;;13.50;99.90;;;;;;5055289;28;20182;-88
2022/05/10 05:51:10;;;;;;;16.33;14.63;;;13.30;99.90;;;;;;5076757;28;20476;-88
2022/05/10 05:53:35;;;;;;;16.77;15.27;;;13.70;99.90;;;;;;5053772;28;20178;-88
2022/05/10 05:56:06;;;;;;;19.10;17.40;;;13.20;99.90;;;;;;5064096;28;20182;-88
2022/05/10 05:58:31;;;;;;;18.60;16.83;;;13.80;99.90;;;;;;5070215;28;20236;-88
2022/05/10 06:00:57;;;;;;;17.27;15.57;;;13.70;99.90;;;;;;5064810;28;21521;-87
2022/05/10 06:03:23;;;;;;;18.30;16.60;;;13.40;99.90;;;;;;5055756;28;20235;-88
2022/05/10 06:05:54;;;;;;;18.60;16.90;;;13.90;99.90;;;;;;5052039;28;20232;-87
2022/05/10 06:08:19;;;;;;;18.33;16.63;;;13.80;99.90;;;;;;5072219;28;20174;-88
2022/05/10 06:10:50;;;;;;;18.27;16.53;;;13.80;99.90;;;;;;5055076;28;20472;-87
2022/05/10 06:13:21;;;;;;;19.03;16.60;;;14.00;99.90;;;;;;5055138;28;20177;-88
2022/05/10 06:15:47;;;;;;;17.53;15.93;;;14.00;99.90;;;;;;5072244;28;20449;-87
2022/05/10 06:18:15;;;;;;;17.57;15.97;;;13.90;99.90;;;;;;5049635;28;20438;-94
2022/05/10 06:20:41;;;;;;;57.43;52.53;;;14.40;99.90;;;;;;5061567;28;20185;-88
2022/05/10 06:23:07;;;;;;;46.43;41.93;;;14.50;99.90;;;;;;5087665;28;20436;-88
2022/05/10 06:25:35;;;;;;;17.07;15.70;;;14.70;99.90;;;;;;5071449;28;20492;-87
2022/05/10 06:28:00;;;;;;;17.27;15.77;;;14.90;99.90;;;;;;5069813;28;20194;-88
2022/05/10 06:30:28;;;;;;;17.23;15.83;;;14.90;99.90;;;;;;5072633;28;20934;-88
2022/05/10 06:32:59;;;;;;;16.57;15.17;;;15.00;99.90;;;;;;5065373;28;20226;-87
2022/05/10 06:35:29;;;;;;;16.97;15.53;;;15.10;99.90;;;;;;5077333;28;20439;-86
2022/05/10 06:40:39;;;;;;;16.87;15.47;;;15.10;99.90;;;;;;5063589;28;20767;-87
2022/05/10 06:43:05;;;;;;;18.30;16.70;;;15.50;99.90;;;;;;5055959;28;20440;-88
2022/05/10 06:45:31;;;;;;;17.10;15.77;;;15.60;99.90;;;;;;5056051;28;20181;-88
2022/05/10 06:47:57;;;;;;;16.77;15.47;;;15.70;99.90;;;;;;5045124;28;21443;-87
2022/05/10 06:50:24;;;;;;;17.33;15.83;;;15.70;99.90;;;;;;5078494;28;20566;-89
2022/05/10 06:52:51;;;;;;;17.33;15.93;;;15.90;99.90;;;;;;5046480;28;20206;-87
2022/05/10 06:55:23;;;;;;;17.83;16.13;;;16.00;99.90;;;;;;5065201;28;20436;-87
2022/05/10 07:00:18;;;;;;;26.70;24.33;;;16.20;99.90;;;;;;5072599;22;20530;-88
2022/05/10 07:02:47;;;;;;;16.37;14.93;;;16.40;99.90;;;;;;5069107;28;20444;-88
2022/05/10 07:05:24;;;;;;;16.63;15.23;;;16.70;99.90;;;;;;5042050;28;20472;-90
2022/05/10 07:08:02;;;;;;;16.50;15.10;;;17.00;99.90;;;;;;5039592;28;20446;-90
2022/05/10 07:10:29;;;;;;;17.33;15.90;;;17.30;99.90;;;;;;5061504;28;20463;-89
2022/05/10 07:12:54;;;;;;;16.53;15.03;;;17.50;99.90;;;;;;5040907;28;20464;-88
2022/05/10 07:15:21;;;;;;;16.53;15.13;;;17.30;99.90;;;;;;5045754;28;20545;-88
2022/05/10 07:17:49;;;;;;;15.73;14.43;;;17.40;99.90;;;;;;5059307;28;20237;-89
2022/05/10 07:20:23;;;;;;;15.87;14.67;;;18.00;99.90;;;;;;5059278;28;20535;-87
2022/05/10 07:22:53;;;;;;;16.50;15.10;;;17.40;99.90;;;;;;5038674;28;20497;-88
2022/05/10 07:25:24;;;;;;;16.17;14.50;;;17.50;99.90;;;;;;5042827;28;20441;-88
2022/05/10 07:27:49;;;;;;;16.20;14.90;;;17.60;99.90;;;;;;5045724;28;20444;-87
2022/05/10 07:30:15;;;;;;;16.30;15.00;;;17.60;99.90;;;;;;5041685;28;20801;-88
2022/05/10 07:32:43;;;;;;;15.87;14.57;;;17.80;99.90;;;;;;5036570;28;20275;-88
2022/05/10 07:35:10;;;;;;;17.27;15.97;;;17.70;99.90;;;;;;5038507;28;20247;-89
2022/05/10 07:37:38;;;;;;;16.30;15.00;;;17.80;99.90;;;;;;5043752;28;20540;-88
2022/05/10 07:40:05;;;;;;;16.40;15.10;;;17.90;99.90;;;;;;5042249;28;20436;-89
2022/05/10 07:42:30;;;;;;;15.80;14.40;;;18.00;99.90;;;;;;5030862;28;20927;-88
2022/05/10 07:44:58;;;;;;;14.07;13.00;;;18.10;99.90;;;;;;5036042;28;20493;-90
2022/05/10 07:47:24;;;;;;;16.17;14.80;;;18.40;99.90;;;;;;5041245;28;20193;-88
2022/05/10 07:49:49;;;;;;;13.40;12.20;;;18.50;99.90;;;;;;5038370;28;21501;-88
2022/05/10 07:52:15;;;;;;;13.73;12.63;;;19.30;99.90;;;;;;5039750;28;20218;-89
2022/05/10 07:54:44;;;;;;;14.20;12.90;;;18.80;99.90;;;;;;5026967;28;20202;-88
2022/05/10 07:57:09;;;;;;;14.90;13.60;;;19.00;99.90;;;;;;5038227;28;20451;-90
2022/05/10 07:59:36;;;;;;;13.37;11.97;;;19.00;99.90;;;;;;5040725;28;20437;-88
2022/05/10 08:02:04;;;;;;;13.23;12.23;;;19.10;99.90;;;;;;5054305;28;20287;-89
2022/05/10 08:04:34;;;;;;;13.50;12.37;;;19.10;99.90;;;;;;5040159;28;20449;-88
2022/05/10 08:07:01;;;;;;;12.70;11.70;;;19.50;99.90;;;;;;5051335;28;20448;-89
2022/05/10 08:09:27;;;;;;;14.30;12.90;;;19.50;99.90;;;;;;5064134;28;21000;-90
2022/05/10 08:11:55;;;;;;;12.67;11.67;;;19.90;99.90;;;;;;5076372;28;20518;-90
2022/05/10 08:14:21;;;;;;;12.67;11.43;;;19.60;99.90;;;;;;5068971;28;20892;-90
2022/05/10 08:16:47;;;;;;;14.43;13.00;;;19.70;99.90;;;;;;5077967;28;20446;-88
2022/05/10 08:19:13;;;;;;;12.67;11.67;;;19.70;99.90;;;;;;5081802;28;20436;-88
2022/05/10 08:21:39;;;;;;;14.23;13.23;;;19.90;99.90;;;;;;5073233;28;20273;-88
2022/05/10 08:24:13;;;;;;;12.70;11.60;;;19.90;99.90;;;;;;5051134;28;20436;-89
2022/05/10 08:26:45;;;;;;;11.70;10.70;;;20.10;99.90;;;;;;5080466;28;20182;-88
2022/05/10 08:29:10;;;;;;;12.47;11.30;;;20.30;99.90;;;;;;5046864;28;20447;-89
2022/05/10 08:31:37;;;;;;;11.77;10.87;;;20.40;99.90;;;;;;5064966;28;20237;-88
2022/05/10 08:34:03;;;;;;;12.13;11.20;;;20.40;99.90;;;;;;5068395;28;20171;-89
2022/05/10 08:36:29;;;;;;;11.93;10.73;;;20.40;99.90;;;;;;5060341;28;24062;-88
2022/05/10 08:38:57;;;;;;;11.10;10.30;;;20.10;99.30;;;;;;5056030;28;20451;-88
2022/05/10 08:41:41;;;;;;;10.77;9.87;;;20.40;99.40;;;;;;5055140;28;20666;-88
2022/05/10 08:44:18;;;;;;;11.77;10.87;;;20.50;99.10;;;;;;5076016;28;20448;-88
2022/05/10 08:46:53;;;;;;;10.90;10.17;;;20.80;99.40;;;;;;5053481;28;20440;-88
2022/05/10 08:49:43;;;;;;;11.20;10.13;;;20.70;98.70;;;;;;5058047;28;20451;-88
2022/05/10 08:52:16;;;;;;;10.50;9.77;;;20.60;99.10;;;;;;5069167;28;20475;-87
2022/05/10 08:54:44;;;;;;;9.87;9.07;;;20.60;97.90;;;;;;5068391;28;20436;-87
2022/05/10 08:57:27;;;;;;;10.30;9.50;;;20.80;97.80;;;;;;5056316;28;20458;-88
2022/05/10 09:00:11;;;;;;;10.90;10.10;;;21.00;98.00;;;;;;5069995;28;20527;-87
2022/05/10 09:02:40;;;;;;;10.30;9.60;;;21.20;97.10;;;;;;5054773;28;20461;-88
2022/05/10 09:05:14;;;;;;;9.00;8.40;;;21.40;97.10;;;;;;5054080;28;22018;-88
2022/05/10 09:08:04;;;;;;;10.70;9.80;;;21.70;97.50;;;;;;5055548;28;20689;-88
2022/05/10 09:10:57;;;;;;;9.53;8.73;;;21.60;97.10;;;;;;5062205;28;20474;-89
2022/05/10 09:13:24;;;;;;;9.90;9.10;;;22.00;95.80;;;;;;5060615;28;21937;-88
2022/05/10 09:15:51;;;;;;;10.13;9.00;;;22.30;96.00;;;;;;5073683;28;20459;-87
2022/05/10 09:18:25;;;;;;;10.70;9.80;;;22.50;95.60;;;;;;5073094;28;20558;-87
2022/05/10 09:21:23;;;;;;;9.53;8.73;;;22.50;95.00;;;;;;5079809;28;20574;-89
2022/05/10 09:24:19;;;;;;;11.30;10.40;;;22.70;94.70;;;;;;5051314;28;20444;-88
2022/05/10 09:26:52;;;;;;;11.10;10.30;;;22.60;95.00;;;;;;5050968;28;20501;-88
2022/05/10 09:29:41;;;;;;;11.00;10.00;;;22.60;95.10;;;;;;5058114;28;20432;-88
2022/05/10 09:35:57;;;;;;;10.77;9.90;;;22.80;93.80;;;;;;5074393;28;20455;-90
2022/05/10 09:38:30;;;;;;;10.17;9.33;;;22.80;93.50;;;;;;5048656;28;20448;-88
2022/05/10 09:40:58;;;;;;;8.97;8.37;;;22.70;93.40;;;;;;5053568;28;20437;-88
2022/05/10 09:43:35;;;;;;;9.03;8.43;;;23.20;92.70;;;;;;5045042;28;20575;-88
2022/05/10 09:47:00;;;;;;;9.17;8.37;;;23.10;91.10;;;;;;5043870;28;21080;-88
2022/05/10 09:50:04;;;;;;;8.00;7.40;;;22.90;91.50;;;;;;5044383;28;20452;-89
2022/05/10 09:52:46;;;;;;;8.43;7.90;;;22.80;90.80;;;;;;5062367;28;20502;-89
2022/05/10 09:55:26;;;;;;;9.00;8.30;;;22.60;92.10;;;;;;5078143;28;20433;-90
2022/05/10 09:57:52;;;;;;;8.27;7.50;;;22.90;93.10;;;;;;5064260;28;20471;-90
2022/05/10 10:00:39;;;;;;;8.77;8.07;;;23.30;90.80;;;;;;5069245;28;20436;-89
2022/05/10 10:03:05;;;;;;;8.47;7.67;;;22.90;90.60;;;;;;5066195;28;21267;-91
2022/05/10 10:05:33;;;;;;;10.93;7.37;;;23.00;88.80;;;;;;5069540;28;20440;-90
2022/05/10 10:08:02;;;;;;;8.20;7.50;;;23.10;90.80;;;;;;5068017;28;20233;-88
2022/05/10 10:10:34;;;;;;;7.73;7.07;;;23.50;89.60;;;;;;5062287;28;20436;-88
2022/05/10 10:13:20;;;;;;;7.87;7.17;;;23.80;89.00;;;;;;5067520;28;20452;-89
2022/05/10 10:16:37;;;;;;;7.90;7.20;;;23.50;87.70;;;;;;5047987;28;20444;-89
2022/05/10 10:19:33;;;;;;;6.90;6.40;;;23.80;86.30;;;;;;5026786;28;20442;-88
2022/05/10 10:22:03;;;;;;;7.63;6.93;;;23.70;87.40;;;;;;5066693;28;20479;-88
2022/05/10 10:24:37;;;;;;;7.87;7.27;;;24.10;86.60;;;;;;5052018;28;20607;-88
2022/05/10 10:27:36;;;;;;;7.80;7.00;;;24.50;85.50;;;;;;5039656;28;20479;-88
2022/05/10 10:30:16;;;;;;;6.83;6.30;;;24.70;87.00;;;;;;5030739;28;20452;-88
2022/05/10 10:32:50;;;;;;;7.80;7.00;;;24.60;85.60;;;;;;5050887;28;20461;-88
2022/05/10 10:35:18;;;;;;;7.23;6.70;;;25.10;84.00;;;;;;5061167;28;20471;-88
2022/05/10 10:38:06;;;;;;;6.20;5.80;;;25.20;84.40;;;;;;5063147;28;20455;-88
2022/05/10 10:40:45;;;;;;;6.37;5.87;;;24.90;82.20;;;;;;5055132;28;20929;-89
2022/05/10 10:43:13;;;;;;;4.97;4.67;;;25.40;76.90;;;;;;5055880;28;20463;-89
2022/05/10 10:46:13;;;;;;;5.60;5.07;;;25.70;70.50;;;;;;5062354;28;20510;-87
2022/05/10 10:49:13;;;;;;;6.40;5.90;;;25.20;71.60;;;;;;5035846;28;20588;-88
2022/05/10 10:52:08;;;;;;;5.50;5.13;;;25.20;71.40;;;;;;5054173;28;20588;-87
2022/05/10 10:54:45;;;;;;;4.57;4.27;;;25.60;70.50;;;;;;5055418;28;20447;-90
2022/05/10 10:58:02;;;;;;;4.83;4.53;;;25.60;67.60;;;;;;5080524;28;20448;-90
2022/05/10 11:01:13;;;;;;;4.90;4.60;;;25.50;66.30;;;;;;5069024;28;21596;-88
2022/05/10 11:03:55;;;;;;;6.27;5.87;;;25.40;66.60;;;;;;5022712;28;20476;-89
2022/05/10 11:06:33;;;;;;;5.53;4.80;;;25.70;66.90;;;;;;5071347;28;20431;-88
2022/05/10 11:09:38;;;;;;;5.90;5.30;;;25.70;68.30;;;;;;5067937;28;20444;-88
2022/05/10 11:16:15;;;;;;;5.03;4.63;;;24.80;66.70;;;;;;5076836;28;20439;-90
2022/05/10 11:19:13;;;;;;;4.90;4.50;;;25.20;66.40;;;;;;5069975;28;20445;-90
2022/05/10 11:21:49;;;;;;;4.50;4.20;;;25.50;65.50;;;;;;5062920;28;20820;-92
2022/05/10 11:24:35;;;;;;;4.00;3.80;;;26.20;61.50;;;;;;5061993;28;20986;-93
2022/05/10 11:27:15;;;;;;;4.57;4.27;;;26.20;60.60;;;;;;5070775;28;20432;-91
2022/05/10 11:29:53;;;;;;;4.50;4.30;;;26.40;58.20;;;;;;5064607;28;20782;-92
2022/05/10 11:32:31;;;;;;;3.83;3.63;;;26.40;57.30;;;;;;5063016;28;20479;-93
2022/05/10 11:35:08;;;;;;;3.70;3.50;;;26.90;55.20;;;;;;5084999;28;20424;-90
2022/05/10 11:37:51;;;;;;;4.23;3.93;;;27.00;54.80;;;;;;5087438;28;20448;-90
2022/05/10 11:40:39;;;;;;;3.83;3.57;;;27.20;54.30;;;;;;5068732;28;20451;-91
2022/05/10 11:43:39;;;;;;;4.60;4.20;;;27.40;58.30;;;;;;5071075;28;20488;-90
2022/05/10 11:46:23;;;;;;;4.20;3.90;;;27.60;59.00;;;;;;5073599;28;20440;-91
2022/05/10 11:49:22;;;;;;;5.27;4.00;;;27.50;60.30;;;;;;5093475;28;20472;-91
2022/05/10 11:55:24;;;;;;;5.10;4.60;;;28.20;51.90;;;;;;5077752;28;20447;-89
2022/05/10 11:57:58;;;;;;;4.73;4.10;;;27.80;56.30;;;;;;5080951;28;20520;-90
2022/05/10 12:00:26;;;;;;;4.33;4.03;;;28.10;51.70;;;;;;5058815;28;20472;-91
2022/05/10 12:02:54;;;;;;;4.10;3.80;;;28.70;52.90;;;;;;5076639;28;20689;-91
2022/05/10 12:05:23;;;;;;;4.23;3.93;;;28.90;52.20;;;;;;5057980;28;20428;-91
2022/05/10 12:07:58;;;;;;;3.97;3.77;;;28.50;50.70;;;;;;5060451;28;20515;-90
2022/05/10 12:10:45;;;;;;;3.67;3.47;;;28.10;48.90;;;;;;5061589;28;20662;-88
2022/05/10 12:22:17;;;;;;;4.70;4.40;;;26.50;50.80;;;;;;5085634;28;20435;-89
2022/05/10 12:25:10;;;;;;;4.60;4.30;;;26.60;51.30;;;;;;5069282;28;21428;-90
2022/05/10 12:27:39;;;;;;;4.93;4.63;;;26.60;52.60;;;;;;5066827;28;20489;-89
2022/05/10 12:30:12;;;;;;;4.77;4.43;;;26.50;52.00;;;;;;5071771;28;20489;-89
2022/05/10 12:32:44;;;;;;;5.17;4.70;;;27.20;53.80;;;;;;5070222;28;20468;-90
2022/05/10 12:35:39;;;;;;;4.53;4.23;;;28.00;50.80;;;;;;5088965;28;20437;-89
2022/05/10 12:38:26;;;;;;;4.40;4.00;;;28.40;50.70;;;;;;5069262;28;20913;-89
2022/05/10 12:41:02;;;;;;;4.23;3.93;;;28.10;49.60;;;;;;5067153;28;20440;-89
2022/05/10 12:43:59;;;;;;;5.03;4.73;;;28.20;50.50;;;;;;5071492;28;20456;-89
2022/05/10 12:46:31;;;;;;;5.30;5.00;;;28.20;51.10;;;;;;5073985;28;20424;-89
2022/05/10 12:49:19;;;;;;;5.13;4.63;;;27.80;51.10;;;;;;5065951;28;20496;-89
2022/05/10 12:52:19;;;;;;;4.90;4.60;;;27.70;50.90;;;;;;5075152;28;20479;-89
2022/05/10 12:54:58;;;;;;;4.80;4.50;;;27.40;50.60;;;;;;5082803;28;20440;-89
2022/05/10 12:57:53;;;;;;;4.90;4.60;;;27.90;52.00;;;;;;5067751;28;20448;-89
2022/05/10 13:00:27;;;;;;;4.70;4.40;;;28.10;51.20;;;;;;5066563;28;20523;-90
2022/05/10 13:03:09;;;;;;;4.97;4.67;;;27.70;51.00;;;;;;5065347;28;20459;-90
2022/05/10 13:06:14;;;;;;;5.60;5.20;;;27.80;50.50;;;;;;5066817;28;20948;-90
2022/05/10 13:09:14;;;;;;;5.17;4.87;;;28.20;50.90;;;;;;5082270;28;20960;-90
2022/05/10 13:11:47;;;;;;;4.90;4.50;;;28.20;50.30;;;;;;5064884;28;21042;-89
2022/05/10 13:14:17;;;;;;;5.30;4.90;;;28.20;50.90;;;;;;5084376;28;20443;-89
2022/05/10 13:16:51;;;;;;;5.10;4.63;;;27.70;51.70;;;;;;5068312;28;20869;-89
2022/05/10 13:19:27;;;;;;;5.77;5.37;;;28.00;51.00;;;;;;5073842;28;20880;-90
2022/05/10 13:22:00;;;;;;;5.10;4.80;;;28.20;50.40;;;;;;5078561;28;20437;-89
2022/05/10 13:24:29;;;;;;;5.00;4.60;;;27.60;50.60;;;;;;5056536;28;20452;-90
2022/05/10 13:27:08;;;;;;;5.57;5.17;;;28.60;51.90;;;;;;5069040;28;21014;-90
2022/05/10 13:29:42;;;;;;;5.30;4.90;;;28.30;51.30;;;;;;5054266;28;20436;-89
2022/05/10 13:32:33;;;;;;;5.20;4.80;;;28.70;50.60;;;;;;5070070;28;20472;-89
2022/05/10 13:35:15;;;;;;;5.20;4.80;;;28.30;49.70;;;;;;5066754;28;20552;-90
2022/05/10 13:37:49;;;;;;;5.30;4.90;;;28.00;49.80;;;;;;5066202;28;20436;-89
2022/05/10 13:40:28;;;;;;;5.10;4.60;;;27.70;51.30;;;;;;5067953;28;20481;-89